sensor_id;sensor_type;location;lat;lon;timestamp;pressure;altitude;pressure_sealevel;temperature;humidity
66887;BME280;67239;51.680;5.976;2023-01-26T00:01:26;102493.13;;;-1.18;91.72
66887;BME280;67239;51.680;5.976;2023-01-26T00:03:57;102493.06;;;-1.19;91.53
66887;BME280;67239;51.680;5.976;2023-01-26T00:06:25;102483.50;;;-1.20;91.47
66887;BME280;67239;51.680;5.976;2023-01-26T00:08:53;102485.19;;;-1.21;91.69
66887;BME280;67239;51.680;5.976;2023-01-26T00:11:24;102485.13;;;-1.22;91.50
66887;BME280;67239;51.680;5.976;2023-01-26T00:13:53;102478.19;;;-1.23;91.72
66887;BME280;67239;51.680;5.976;2023-01-26T00:16:25;102464.28;;;-1.26;91.65
66887;BME280;67239;51.680;5.976;2023-01-26T00:18:53;102472.00;;;-1.27;91.68
66887;BME280;67239;51.680;5.976;2023-01-26T00:21:22;102465.00;;;-1.30;91.67
66887;BME280;67239;51.680;5.976;2023-01-26T00:23:51;102468.34;;;-1.32;91.74
66887;BME280;67239;51.680;5.976;2023-01-26T00:26:21;102458.84;;;-1.32;91.72
66887;BME280;67239;51.680;5.976;2023-01-26T00:28:51;102454.63;;;-1.30;91.82
66887;BME280;67239;51.680;5.976;2023-01-26T00:31:24;102452.09;;;-1.28;91.89
66887;BME280;67239;51.680;5.976;2023-01-26T00:33:54;102446.06;;;-1.29;91.79
66887;BME280;67239;51.680;5.976;2023-01-26T00:36:22;102438.31;;;-1.29;91.84
66887;BME280;67239;51.680;5.976;2023-01-26T00:38:49;102434.91;;;-1.28;92.01
66887;BME280;67239;51.680;5.976;2023-01-26T00:41:17;102438.34;;;-1.27;91.88
66887;BME280;67239;51.680;5.976;2023-01-26T00:44:03;102441.75;;;-1.28;91.91
66887;BME280;67239;51.680;5.976;2023-01-26T00:46:30;102445.31;;;-1.26;91.99
66887;BME280;67239;51.680;5.976;2023-01-26T00:48:59;102440.13;;;-1.26;91.94
66887;BME280;67239;51.680;5.976;2023-01-26T00:51:26;102433.22;;;-1.26;91.92
66887;BME280;67239;51.680;5.976;2023-01-26T00:53:54;102429.84;;;-1.25;91.91
66887;BME280;67239;51.680;5.976;2023-01-26T00:56:21;102426.44;;;-1.23;92.08
66887;BME280;67239;51.680;5.976;2023-01-26T00:58:48;102422.16;;;-1.23;91.90
66887;BME280;67239;51.680;5.976;2023-01-26T01:01:15;102419.63;;;-1.21;92.10
66887;BME280;67239;51.680;5.976;2023-01-26T01:03:42;102416.22;;;-1.20;91.90
66887;BME280;67239;51.680;5.976;2023-01-26T01:06:10;102414.41;;;-1.23;91.87
66887;BME280;67239;51.680;5.976;2023-01-26T01:08:37;102401.44;;;-1.23;92.07
66887;BME280;67239;51.680;5.976;2023-01-26T01:11:08;102395.44;;;-1.22;92.03
66887;BME280;67239;51.680;5.976;2023-01-26T01:13:37;102408.31;;;-1.23;92.00
66887;BME280;67239;51.680;5.976;2023-01-26T01:16:07;102397.81;;;-1.27;91.99
66887;BME280;67239;51.680;5.976;2023-01-26T01:18:35;102399.59;;;-1.26;92.06
66887;BME280;67239;51.680;5.976;2023-01-26T01:21:11;102401.38;;;-1.25;92.06
66887;BME280;67239;51.680;5.976;2023-01-26T01:23:40;102403.13;;;-1.23;92.29
66887;BME280;67239;51.680;5.976;2023-01-26T01:26:08;102398.97;;;-1.20;92.32
66887;BME280;67239;51.680;5.976;2023-01-26T01:28:37;102397.41;;;-1.16;92.29
66887;BME280;67239;51.680;5.976;2023-01-26T01:31:06;102394.94;;;-1.13;92.34
66887;BME280;67239;51.680;5.976;2023-01-26T01:33:35;102393.19;;;-1.14;92.40
66887;BME280;67239;51.680;5.976;2023-01-26T01:36:06;102391.41;;;-1.15;92.16
66887;BME280;67239;51.680;5.976;2023-01-26T01:38:38;102380.19;;;-1.16;92.35
66887;BME280;67239;51.680;5.976;2023-01-26T01:41:06;102386.31;;;-1.14;92.27
66887;BME280;67239;51.680;5.976;2023-01-26T01:43:35;102388.97;;;-1.12;92.34
66887;BME280;67239;51.680;5.976;2023-01-26T01:46:32;102388.13;;;-1.11;92.28
66887;BME280;67239;51.680;5.976;2023-01-26T01:49:11;102397.72;;;-1.08;92.32
66887;BME280;67239;51.680;5.976;2023-01-26T01:52:07;102397.88;;;-1.05;92.27
66887;BME280;67239;51.680;5.976;2023-01-26T01:54:43;102396.97;;;-1.06;92.23
66887;BME280;67239;51.680;5.976;2023-01-26T01:57:22;102391.94;;;-1.03;92.37
66887;BME280;67239;51.680;5.976;2023-01-26T02:00:03;102401.47;;;-1.02;92.23
66887;BME280;67239;51.680;5.976;2023-01-26T02:02:40;102403.25;;;-1.01;92.22
66887;BME280;67239;51.680;5.976;2023-01-26T02:05:21;102399.84;;;-1.00;92.20
66887;BME280;67239;51.680;5.976;2023-01-26T02:07:56;102402.44;;;-1.00;92.06
66887;BME280;67239;51.680;5.976;2023-01-26T02:10:24;102393.84;;;-0.99;91.91
66887;BME280;67239;51.680;5.976;2023-01-26T02:12:54;102384.41;;;-0.97;92.04
66887;BME280;67239;51.680;5.976;2023-01-26T02:15:22;102383.59;;;-0.96;92.02
66887;BME280;67239;51.680;5.976;2023-01-26T02:17:51;102384.50;;;-0.95;91.97
66887;BME280;67239;51.680;5.976;2023-01-26T02:20:49;102384.56;;;-0.94;92.01
66887;BME280;67239;51.680;5.976;2023-01-26T02:26:15;102386.28;;;-0.94;92.14
66887;BME280;67239;51.680;5.976;2023-01-26T02:28:46;102381.91;;;-0.95;92.13
66887;BME280;67239;51.680;5.976;2023-01-26T02:31:15;102373.25;;;-0.96;92.13
66887;BME280;67239;51.680;5.976;2023-01-26T02:33:46;102375.00;;;-0.95;92.29
66887;BME280;67239;51.680;5.976;2023-01-26T02:39:03;102371.59;;;-0.94;92.23
66887;BME280;67239;51.680;5.976;2023-01-26T02:41:34;102384.56;;;-0.94;92.18
66887;BME280;67239;51.680;5.976;2023-01-26T02:44:22;102365.59;;;-0.92;92.14
66887;BME280;67239;51.680;5.976;2023-01-26T02:46:49;102361.25;;;-0.94;92.06
66887;BME280;67239;51.680;5.976;2023-01-26T02:49:16;102364.75;;;-0.93;92.08
66887;BME280;67239;51.680;5.976;2023-01-26T02:52:06;102358.75;;;-0.92;92.15
66887;BME280;67239;51.680;5.976;2023-01-26T02:54:34;102356.06;;;-0.94;92.22
66887;BME280;67239;51.680;5.976;2023-01-26T02:57:20;102356.97;;;-0.93;92.21
66887;BME280;67239;51.680;5.976;2023-01-26T02:59:47;102357.78;;;-0.94;92.28
66887;BME280;67239;51.680;5.976;2023-01-26T03:02:14;102357.84;;;-0.92;92.33
66887;BME280;67239;51.680;5.976;2023-01-26T03:04:41;102360.47;;;-0.91;92.36
66887;BME280;67239;51.680;5.976;2023-01-26T03:07:09;102363.16;;;-0.89;92.36
66887;BME280;67239;51.680;5.976;2023-01-26T03:09:36;102361.38;;;-0.90;92.32
66887;BME280;67239;51.680;5.976;2023-01-26T03:12:04;102355.25;;;-0.92;92.24
66887;BME280;67239;51.680;5.976;2023-01-26T03:14:31;102355.19;;;-0.94;92.40
66887;BME280;67239;51.680;5.976;2023-01-26T03:16:58;102353.56;;;-0.92;92.38
66887;BME280;67239;51.680;5.976;2023-01-26T03:19:25;102357.97;;;-0.89;92.46
66887;BME280;67239;51.680;5.976;2023-01-26T03:22:11;102348.50;;;-0.89;92.41
66887;BME280;67239;51.680;5.976;2023-01-26T03:24:57;102349.44;;;-0.87;92.51
66887;BME280;67239;51.680;5.976;2023-01-26T03:27:47;102343.44;;;-0.86;92.54
66887;BME280;67239;51.680;5.976;2023-01-26T03:30:17;102347.81;;;-0.85;92.56
66887;BME280;67239;51.680;5.976;2023-01-26T03:32:48;102346.91;;;-0.85;92.49
66887;BME280;67239;51.680;5.976;2023-01-26T03:35:15;102352.91;;;-0.86;92.42
66887;BME280;67239;51.680;5.976;2023-01-26T03:37:48;102344.22;;;-0.88;92.38
66887;BME280;67239;51.680;5.976;2023-01-26T03:40:35;102348.56;;;-0.87;92.49
66887;BME280;67239;51.680;5.976;2023-01-26T03:43:20;102347.72;;;-0.86;92.70
66887;BME280;67239;51.680;5.976;2023-01-26T03:46:07;102344.31;;;-0.85;92.45
66887;BME280;67239;51.680;5.976;2023-01-26T03:48:53;102352.03;;;-0.87;92.54
66887;BME280;67239;51.680;5.976;2023-01-26T03:51:38;102349.31;;;-0.90;92.52
66887;BME280;67239;51.680;5.976;2023-01-26T03:54:24;102345.84;;;-0.90;92.63
66887;BME280;67239;51.680;5.976;2023-01-26T03:57:10;102347.63;;;-0.89;92.79
66887;BME280;67239;51.680;5.976;2023-01-26T03:59:37;102348.50;;;-0.89;92.78
66887;BME280;67239;51.680;5.976;2023-01-26T04:02:10;102340.81;;;-0.87;92.75
66887;BME280;67239;51.680;5.976;2023-01-26T04:04:57;102346.03;;;-0.86;92.88
66887;BME280;67239;51.680;5.976;2023-01-26T04:07:47;102340.84;;;-0.86;92.78
66887;BME280;67239;51.680;5.976;2023-01-26T04:10:32;102343.50;;;-0.84;92.94
66887;BME280;67239;51.680;5.976;2023-01-26T04:13:02;102346.16;;;-0.83;92.97
66887;BME280;67239;51.680;5.976;2023-01-26T04:15:53;102338.41;;;-0.83;92.94
66887;BME280;67239;51.680;5.976;2023-01-26T04:18:40;102351.41;;;-0.81;92.90
66887;BME280;67239;51.680;5.976;2023-01-26T04:21:26;102352.22;;;-0.82;92.83
66887;BME280;67239;51.680;5.976;2023-01-26T04:23:58;102347.94;;;-0.82;92.81
66887;BME280;67239;51.680;5.976;2023-01-26T04:26:29;102353.19;;;-0.80;92.97
66887;BME280;67239;51.680;5.976;2023-01-26T04:29:10;102341.19;;;-0.78;92.95
66887;BME280;67239;51.680;5.976;2023-01-26T04:31:40;102346.41;;;-0.76;93.10
66887;BME280;67239;51.680;5.976;2023-01-26T04:34:11;102339.59;;;-0.74;93.15
66887;BME280;67239;51.680;5.976;2023-01-26T04:36:41;102349.94;;;-0.74;93.23
66887;BME280;67239;51.680;5.976;2023-01-26T04:39:09;102347.38;;;-0.74;93.02
66887;BME280;67239;51.680;5.976;2023-01-26T04:41:40;102355.06;;;-0.76;93.08
66887;BME280;67239;51.680;5.976;2023-01-26T04:44:11;102349.13;;;-0.73;92.96
66887;BME280;67239;51.680;5.976;2023-01-26T04:46:38;102352.59;;;-0.73;93.08
66887;BME280;67239;51.680;5.976;2023-01-26T04:49:05;102343.19;;;-0.71;93.24
66887;BME280;67239;51.680;5.976;2023-01-26T04:51:33;102338.00;;;-0.71;93.08
66887;BME280;67239;51.680;5.976;2023-01-26T04:54:00;102347.59;;;-0.68;93.02
66887;BME280;67239;51.680;5.976;2023-01-26T04:56:31;102345.09;;;-0.67;93.07
66887;BME280;67239;51.680;5.976;2023-01-26T04:59:03;102344.25;;;-0.66;93.08
66887;BME280;67239;51.680;5.976;2023-01-26T05:01:33;102344.13;;;-0.69;93.27
66887;BME280;67239;51.680;5.976;2023-01-26T05:04:03;102340.59;;;-0.71;93.16
66887;BME280;67239;51.680;5.976;2023-01-26T05:06:32;102340.66;;;-0.69;93.38
66887;BME280;67239;51.680;5.976;2023-01-26T05:08:59;102334.72;;;-0.67;93.48
66887;BME280;67239;51.680;5.976;2023-01-26T05:11:28;102333.88;;;-0.66;93.67
66887;BME280;67239;51.680;5.976;2023-01-26T05:14:03;102336.56;;;-0.64;93.37
66887;BME280;67239;51.680;5.976;2023-01-26T05:16:36;102326.25;;;-0.63;93.48
66887;BME280;67239;51.680;5.976;2023-01-26T05:19:06;102330.66;;;-0.60;93.53
66887;BME280;67239;51.680;5.976;2023-01-26T05:21:42;102329.00;;;-0.58;93.57
66887;BME280;67239;51.680;5.976;2023-01-26T05:24:11;102324.72;;;-0.57;93.60
66887;BME280;67239;51.680;5.976;2023-01-26T05:26:57;102331.72;;;-0.55;93.59
66887;BME280;67239;51.680;5.976;2023-01-26T05:29:47;102330.91;;;-0.54;93.85
66887;BME280;67239;51.680;5.976;2023-01-26T05:32:15;102332.69;;;-0.53;93.72
66887;BME280;67239;51.680;5.976;2023-01-26T05:34:44;102331.84;;;-0.52;93.52
66887;BME280;67239;51.680;5.976;2023-01-26T05:37:13;102326.72;;;-0.50;93.73
66887;BME280;67239;51.680;5.976;2023-01-26T05:39:43;102339.72;;;-0.49;93.70
66887;BME280;67239;51.680;5.976;2023-01-26T05:42:11;102330.31;;;-0.47;93.76
66887;BME280;67239;51.680;5.976;2023-01-26T05:44:58;102331.22;;;-0.46;93.72
66887;BME280;67239;51.680;5.976;2023-01-26T05:47:27;102331.28;;;-0.44;93.87
66887;BME280;67239;51.680;5.976;2023-01-26T05:49:54;102334.72;;;-0.44;93.97
66887;BME280;67239;51.680;5.976;2023-01-26T05:52:26;102332.22;;;-0.42;93.87
66887;BME280;67239;51.680;5.976;2023-01-26T05:54:53;102336.59;;;-0.41;93.67
66887;BME280;67239;51.680;5.976;2023-01-26T05:57:20;102334.91;;;-0.39;93.75
66887;BME280;67239;51.680;5.976;2023-01-26T05:59:52;102337.09;;;-0.27;94.10
66887;BME280;67239;51.680;5.976;2023-01-26T06:02:19;102338.16;;;-0.22;94.07
66887;BME280;67239;51.680;5.976;2023-01-26T06:04:48;102333.78;;;-0.23;93.71
66887;BME280;67239;51.680;5.976;2023-01-26T06:07:15;102337.84;;;-0.30;93.36
66887;BME280;67239;51.680;5.976;2023-01-26T06:09:53;102337.69;;;-0.35;93.32
66887;BME280;67239;51.680;5.976;2023-01-26T06:12:31;102332.50;;;-0.35;93.30
66887;BME280;67239;51.680;5.976;2023-01-26T06:15:10;102338.56;;;-0.34;93.54
66887;BME280;67239;51.680;5.976;2023-01-26T06:17:42;102342.00;;;-0.35;93.68
66887;BME280;67239;51.680;5.976;2023-01-26T06:20:12;102335.72;;;-0.40;93.63
66887;BME280;67239;51.680;5.976;2023-01-26T06:22:44;102342.50;;;-0.44;93.54
66887;BME280;67239;51.680;5.976;2023-01-26T06:25:11;102337.22;;;-0.47;93.62
66887;BME280;67239;51.680;5.976;2023-01-26T06:27:39;102344.19;;;-0.46;93.79
66887;BME280;67239;51.680;5.976;2023-01-26T06:30:15;102341.50;;;-0.48;93.87
66887;BME280;67239;51.680;5.976;2023-01-26T06:32:46;102342.28;;;-0.50;93.80
66887;BME280;67239;51.680;5.976;2023-01-26T06:35:13;102343.97;;;-0.51;94.21
66887;BME280;67239;51.680;5.976;2023-01-26T06:37:41;102343.16;;;-0.50;94.18
66887;BME280;67239;51.680;5.976;2023-01-26T06:40:09;102346.69;;;-0.48;94.33
66887;BME280;67239;51.680;5.976;2023-01-26T06:42:37;102349.34;;;-0.46;94.35
66887;BME280;67239;51.680;5.976;2023-01-26T06:45:05;102352.00;;;-0.44;94.54
66887;BME280;67239;51.680;5.976;2023-01-26T06:47:33;102354.78;;;-0.40;94.61
66887;BME280;67239;51.680;5.976;2023-01-26T06:50:03;102343.59;;;-0.39;94.50
66887;BME280;67239;51.680;5.976;2023-01-26T06:52:34;102354.00;;;-0.37;94.57
66887;BME280;67239;51.680;5.976;2023-01-26T06:55:17;102357.41;;;-0.38;94.42
66887;BME280;67239;51.680;5.976;2023-01-26T06:57:59;102359.94;;;-0.40;94.52
66887;BME280;67239;51.680;5.976;2023-01-26T07:00:54;102359.03;;;-0.40;94.51
66887;BME280;67239;51.680;5.976;2023-01-26T07:03:26;102358.94;;;-0.43;94.59
66887;BME280;67239;51.680;5.976;2023-01-26T07:05:53;102362.31;;;-0.46;94.57
66887;BME280;67239;51.680;5.976;2023-01-26T07:08:20;102359.72;;;-0.46;94.57
66887;BME280;67239;51.680;5.976;2023-01-26T07:10:49;102351.09;;;-0.45;94.91
66887;BME280;67239;51.680;5.976;2023-01-26T07:13:16;102353.81;;;-0.42;94.86
66887;BME280;67239;51.680;5.976;2023-01-26T07:15:43;102351.19;;;-0.43;94.75
66887;BME280;67239;51.680;5.976;2023-01-26T07:18:10;102349.41;;;-0.44;94.85
66887;BME280;67239;51.680;5.976;2023-01-26T07:20:37;102349.34;;;-0.46;94.85
66887;BME280;67239;51.680;5.976;2023-01-26T07:23:05;102355.41;;;-0.45;95.07
66887;BME280;67239;51.680;5.976;2023-01-26T07:25:32;102367.59;;;-0.43;95.20
66887;BME280;67239;51.680;5.976;2023-01-26T07:28:00;102365.13;;;-0.40;95.32
66887;BME280;67239;51.680;5.976;2023-01-26T07:30:27;102365.13;;;-0.40;95.07
66887;BME280;67239;51.680;5.976;2023-01-26T07:32:54;102363.31;;;-0.42;95.18
66887;BME280;67239;51.680;5.976;2023-01-26T07:35:21;102365.91;;;-0.42;95.29
66887;BME280;67239;51.680;5.976;2023-01-26T07:37:47;102373.59;;;-0.44;95.05
66887;BME280;67239;51.680;5.976;2023-01-26T07:40:14;102370.13;;;-0.44;95.21
66887;BME280;67239;51.680;5.976;2023-01-26T07:42:42;102383.09;;;-0.44;95.15
66887;BME280;67239;51.680;5.976;2023-01-26T07:45:19;102374.41;;;-0.45;95.42
66887;BME280;67239;51.680;5.976;2023-01-26T07:47:46;102381.28;;;-0.47;95.49
66887;BME280;67239;51.680;5.976;2023-01-26T07:50:14;102376.13;;;-0.45;95.73
66887;BME280;67239;51.680;5.976;2023-01-26T07:52:41;102377.13;;;-0.42;95.74
66887;BME280;67239;51.680;5.976;2023-01-26T07:55:09;102382.47;;;-0.39;95.96
66887;BME280;67239;51.680;5.976;2023-01-26T07:57:37;102379.91;;;-0.37;95.98
66887;BME280;67239;51.680;5.976;2023-01-26T08:00:04;102383.47;;;-0.35;96.19
66887;BME280;67239;51.680;5.976;2023-01-26T08:02:37;102380.91;;;-0.34;96.25
66887;BME280;67239;51.680;5.976;2023-01-26T08:05:04;102380.22;;;-0.29;96.24
66887;BME280;67239;51.680;5.976;2023-01-26T08:07:32;102381.16;;;-0.27;96.25
66887;BME280;67239;51.680;5.976;2023-01-26T08:09:59;102377.00;;;-0.24;96.28
66887;BME280;67239;51.680;5.976;2023-01-26T08:12:27;102388.41;;;-0.19;96.21
66887;BME280;67239;51.680;5.976;2023-01-26T08:14:54;102380.72;;;-0.17;96.38
66887;BME280;67239;51.680;5.976;2023-01-26T08:17:21;102386.81;;;-0.15;96.44
66887;BME280;67239;51.680;5.976;2023-01-26T08:19:48;102386.88;;;-0.13;96.30
66887;BME280;67239;51.680;5.976;2023-01-26T08:22:15;102387.84;;;-0.11;96.28
66887;BME280;67239;51.680;5.976;2023-01-26T08:24:42;102391.31;;;-0.11;96.11
66887;BME280;67239;51.680;5.976;2023-01-26T08:27:09;102384.28;;;-0.13;96.15
66887;BME280;67239;51.680;5.976;2023-01-26T08:29:36;102386.94;;;-0.12;96.05
66887;BME280;67239;51.680;5.976;2023-01-26T08:32:03;102394.66;;;-0.13;95.97
66887;BME280;67239;51.680;5.976;2023-01-26T08:34:30;102394.66;;;-0.13;95.81
66887;BME280;67239;51.680;5.976;2023-01-26T08:36:57;102400.72;;;-0.13;95.95
66887;BME280;67239;51.680;5.976;2023-01-26T08:39:24;102390.44;;;-0.11;95.79
66887;BME280;67239;51.680;5.976;2023-01-26T08:41:51;102398.03;;;-0.16;95.96
66887;BME280;67239;51.680;5.976;2023-01-26T08:44:18;102397.19;;;-0.15;95.69
66887;BME280;67239;51.680;5.976;2023-01-26T08:46:46;102397.38;;;-0.10;96.15
66887;BME280;67239;51.680;5.976;2023-01-26T08:49:13;102393.19;;;-0.07;96.21
66887;BME280;67239;51.680;5.976;2023-01-26T08:51:40;102400.16;;;-0.06;96.28
66887;BME280;67239;51.680;5.976;2023-01-26T08:54:07;102408.97;;;-0.01;96.26
66887;BME280;67239;51.680;5.976;2023-01-26T08:56:34;102402.09;;;0.00;96.30
66887;BME280;67239;51.680;5.976;2023-01-26T08:59:01;102408.16;;;0.01;96.07
66887;BME280;67239;51.680;5.976;2023-01-26T09:01:28;102409.03;;;0.01;96.09
66887;BME280;67239;51.680;5.976;2023-01-26T09:03:55;102409.97;;;0.03;96.28
66887;BME280;67239;51.680;5.976;2023-01-26T09:06:24;102414.47;;;0.07;96.26
66887;BME280;67239;51.680;5.976;2023-01-26T09:08:51;102413.69;;;0.10;96.15
66887;BME280;67239;51.680;5.976;2023-01-26T09:11:17;102413.75;;;0.11;95.95
66887;BME280;67239;51.680;5.976;2023-01-26T09:13:49;102407.88;;;0.15;95.90
66887;BME280;67239;51.680;5.976;2023-01-26T09:16:23;102409.69;;;0.18;96.13
66887;BME280;67239;51.680;5.976;2023-01-26T09:18:52;102408.91;;;0.21;96.10
66887;BME280;67239;51.680;5.976;2023-01-26T09:21:19;102413.28;;;0.22;96.08
66887;BME280;67239;51.680;5.976;2023-01-26T09:23:49;102414.16;;;0.22;95.97
66887;BME280;67239;51.680;5.976;2023-01-26T09:26:16;102416.03;;;0.26;96.12
66887;BME280;67239;51.680;5.976;2023-01-26T09:28:43;102417.88;;;0.29;96.30
66887;BME280;67239;51.680;5.976;2023-01-26T09:31:11;102406.84;;;0.35;96.34
66887;BME280;67239;51.680;5.976;2023-01-26T09:33:38;102410.50;;;0.40;96.40
66887;BME280;67239;51.680;5.976;2023-01-26T09:36:07;102410.59;;;0.43;96.25
66887;BME280;67239;51.680;5.976;2023-01-26T09:38:36;102416.84;;;0.48;96.33
66887;BME280;67239;51.680;5.976;2023-01-26T09:44:18;102410.41;;;0.61;96.31
66887;BME280;67239;51.680;5.976;2023-01-26T09:47:06;102414.06;;;0.68;96.24
66887;BME280;67239;51.680;5.976;2023-01-26T09:49:43;102415.94;;;0.70;95.99
66887;BME280;67239;51.680;5.976;2023-01-26T09:54:57;102415.25;;;0.76;96.06
66887;BME280;67239;51.680;5.976;2023-01-26T09:57:58;102406.69;;;0.79;95.83
66887;BME280;67239;51.680;5.976;2023-01-26T10:00:36;102408.50;;;0.81;96.01
66887;BME280;67239;51.680;5.976;2023-01-26T10:03:25;102398.97;;;0.82;95.71
66887;BME280;67239;51.680;5.976;2023-01-26T10:09:30;102397.25;;;0.81;95.70
66887;BME280;67239;51.680;5.976;2023-01-26T10:12:06;102406.69;;;0.79;95.90
66887;BME280;67239;51.680;5.976;2023-01-26T10:17:41;102403.94;;;0.74;95.66
66887;BME280;67239;51.680;5.976;2023-01-26T10:22:46;102405.59;;;0.72;96.14
66887;BME280;67239;51.680;5.976;2023-01-26T10:25:28;102405.75;;;0.76;96.39
66887;BME280;67239;51.680;5.976;2023-01-26T10:28:03;102390.38;;;0.83;96.57
66887;BME280;67239;51.680;5.976;2023-01-26T10:30:40;102389.78;;;0.90;96.62
66887;BME280;67239;51.680;5.976;2023-01-26T10:33:23;102389.25;;;1.00;96.74
66887;BME280;67239;51.680;5.976;2023-01-26T10:35:53;102387.06;;;1.13;97.01
66887;BME280;67239;51.680;5.976;2023-01-26T10:41:01;102403.22;;;1.30;96.83
66887;BME280;67239;51.680;5.976;2023-01-26T10:46:32;102395.56;;;1.34;96.51
66887;BME280;67239;51.680;5.976;2023-01-26T10:51:36;102403.50;;;1.39;96.58
66887;BME280;67239;51.680;5.976;2023-01-26T10:54:24;102402.75;;;1.42;96.41
66887;BME280;67239;51.680;5.976;2023-01-26T10:57:02;102400.22;;;1.45;96.22
66887;BME280;67239;51.680;5.976;2023-01-26T10:59:51;102400.28;;;1.46;96.14
66887;BME280;67239;51.680;5.976;2023-01-26T11:02:22;102402.00;;;1.46;96.09
66887;BME280;67239;51.680;5.976;2023-01-26T11:07:33;102387.34;;;1.48;96.05
66887;BME280;67239;51.680;5.976;2023-01-26T11:12:45;102392.09;;;1.61;96.41
66887;BME280;67239;51.680;5.976;2023-01-26T11:15:20;102391.31;;;1.64;96.46
66887;BME280;67239;51.680;5.976;2023-01-26T11:18:00;102380.22;;;1.69;96.24
66887;BME280;67239;51.680;5.976;2023-01-26T11:23:17;102378.16;;;1.86;96.56
66887;BME280;67239;51.680;5.976;2023-01-26T11:29:03;102376.38;;;2.16;96.62
66887;BME280;67239;51.680;5.976;2023-01-26T11:35:15;102384.78;;;2.36;96.28
66887;BME280;67239;51.680;5.976;2023-01-26T11:50:15;102366.69;;;2.73;97.27
66887;BME280;67239;51.680;5.976;2023-01-26T11:58:47;102369.66;;;2.87;97.51
66887;BME280;67239;51.680;5.976;2023-01-26T12:01:28;102369.38;;;3.09;97.52
66887;BME280;67239;51.680;5.976;2023-01-26T12:03:59;102361.22;;;3.32;97.64
66887;BME280;67239;51.680;5.976;2023-01-26T12:06:37;102364.25;;;3.49;97.62
66887;BME280;67239;51.680;5.976;2023-01-26T12:09:29;102361.06;;;3.63;97.50
66887;BME280;67239;51.680;5.976;2023-01-26T12:15:03;102357.19;;;3.83;97.19
66887;BME280;67239;51.680;5.976;2023-01-26T12:20:50;102352.66;;;4.17;97.38
66887;BME280;67239;51.680;5.976;2023-01-26T12:23:30;102345.09;;;4.30;97.63
66887;BME280;67239;51.680;5.976;2023-01-26T12:26:14;102349.78;;;4.46;97.58
66887;BME280;67239;51.680;5.976;2023-01-26T12:28:49;102351.63;;;4.52;97.07
66887;BME280;67239;51.680;5.976;2023-01-26T12:31:28;102340.28;;;4.51;96.58
66887;BME280;67239;51.680;5.976;2023-01-26T12:34:01;102341.22;;;4.55;96.41
66887;BME280;67239;51.680;5.976;2023-01-26T12:45:09;102327.00;;;4.88;97.01
66887;BME280;67239;51.680;5.976;2023-01-26T12:47:54;102328.91;;;4.97;96.97
66887;BME280;67239;51.680;5.976;2023-01-26T12:53:40;102313.50;;;5.16;96.11
66887;BME280;67239;51.680;5.976;2023-01-26T12:59:47;102304.97;;;5.26;95.35
66887;BME280;67239;51.680;5.976;2023-01-26T13:04:42;102296.34;;;5.33;95.08
66887;BME280;67239;51.680;5.976;2023-01-26T13:07:36;102302.47;;;5.35;94.57
66887;BME280;67239;51.680;5.976;2023-01-26T13:12:55;102298.81;;;5.22;94.59
66887;BME280;67239;51.680;5.976;2023-01-26T13:15:29;102293.59;;;5.25;94.53
66887;BME280;67239;51.680;5.976;2023-01-26T13:18:00;102291.91;;;5.27;94.29
66887;BME280;67239;51.680;5.976;2023-01-26T13:20:47;102284.09;;;5.29;94.73
66887;BME280;67239;51.680;5.976;2023-01-26T13:26:12;102290.38;;;5.43;95.18
66887;BME280;67239;51.680;5.976;2023-01-26T13:28:42;102282.66;;;5.51;95.36
66887;BME280;67239;51.680;5.976;2023-01-26T13:31:10;102288.06;;;5.65;95.50
66887;BME280;67239;51.680;5.976;2023-01-26T13:33:40;102286.53;;;5.80;95.45
66887;BME280;67239;51.680;5.976;2023-01-26T13:36:15;102282.28;;;5.91;94.98
66887;BME280;67239;51.680;5.976;2023-01-26T13:38:57;102283.22;;;5.95;94.52
66887;BME280;67239;51.680;5.976;2023-01-26T13:41:29;102275.38;;;5.96;94.05
66887;BME280;67239;51.680;5.976;2023-01-26T13:44:19;102272.00;;;6.02;94.01
66887;BME280;67239;51.680;5.976;2023-01-26T13:47:10;102275.53;;;6.07;94.01
66887;BME280;67239;51.680;5.976;2023-01-26T13:50:00;102283.47;;;6.16;94.00
66887;BME280;67239;51.680;5.976;2023-01-26T13:52:28;102280.03;;;6.19;94.06
66887;BME280;67239;51.680;5.976;2023-01-26T13:54:55;102285.25;;;6.17;94.20
66887;BME280;67239;51.680;5.976;2023-01-26T13:57:29;102277.47;;;6.24;94.01
66887;BME280;67239;51.680;5.976;2023-01-26T13:59:58;102268.03;;;6.40;94.22
66887;BME280;67239;51.680;5.976;2023-01-26T14:02:31;102276.78;;;6.45;94.51
66887;BME280;67239;51.680;5.976;2023-01-26T14:05:01;102272.47;;;6.48;94.39
66887;BME280;67239;51.680;5.976;2023-01-26T14:07:38;102280.34;;;6.50;94.38
66887;BME280;67239;51.680;5.976;2023-01-26T14:10:17;102275.94;;;6.47;94.34
66887;BME280;67239;51.680;5.976;2023-01-26T14:12:49;102274.22;;;6.49;94.13
66887;BME280;67239;51.680;5.976;2023-01-26T14:15:30;102277.69;;;6.47;93.57
66887;BME280;67239;51.680;5.976;2023-01-26T14:18:00;102269.78;;;6.41;93.26
66887;BME280;67239;51.680;5.976;2023-01-26T14:20:36;102279.41;;;6.43;93.16
66887;BME280;67239;51.680;5.976;2023-01-26T14:23:15;102281.22;;;6.52;93.12
66887;BME280;67239;51.680;5.976;2023-01-26T14:26:05;102282.16;;;6.56;93.25
66887;BME280;67239;51.680;5.976;2023-01-26T14:28:45;102280.41;;;6.58;93.66
66887;BME280;67239;51.680;5.976;2023-01-26T14:31:17;102280.44;;;6.62;93.60
66887;BME280;67239;51.680;5.976;2023-01-26T14:33:49;102284.88;;;6.66;93.64
66887;BME280;67239;51.680;5.976;2023-01-26T14:36:37;102281.47;;;6.75;93.33
66887;BME280;67239;51.680;5.976;2023-01-26T14:39:15;102286.78;;;6.84;93.06
66887;BME280;67239;51.680;5.976;2023-01-26T14:41:44;102292.91;;;6.87;93.15
66887;BME280;67239;51.680;5.976;2023-01-26T14:44:13;102285.06;;;6.87;92.98
66887;BME280;67239;51.680;5.976;2023-01-26T14:50:00;102297.25;;;6.86;92.88
66887;BME280;67239;51.680;5.976;2023-01-26T14:52:38;102297.22;;;6.83;93.00
66887;BME280;67239;51.680;5.976;2023-01-26T14:55:26;102291.13;;;6.84;92.62
66887;BME280;67239;51.680;5.976;2023-01-26T14:57:55;102291.97;;;6.81;92.46